Time;durP1;ratioP1;P1;durP2;ratioP2;P2;SDS_P1;SDS_P2;PMS_P1;PMS_P2;Temp;Humidity;BMP_temperature;BMP_pressure;BME280_temperature;BME280_humidity;BME280_pressure;Samples;Min_cycle;Max_cycle;Signal;HPM_P1;HPM_P2
2022/05/22 00:01:49;;;;;;;9.07;2.92;;;;;;;11.38;75.63;100343.66;5082395;28;20051;-82
2022/05/22 00:04:14;;;;;;;8.35;2.85;;;;;;;11.42;75.43;100345.34;5082440;28;20016;-82
2022/05/22 00:06:39;;;;;;;7.07;3.10;;;;;;;11.37;75.86;100336.75;5083002;28;20108;-84
2022/05/22 00:09:05;;;;;;;13.43;3.83;;;;;;;11.47;75.36;100345.28;5082597;28;20081;-84
2022/05/22 00:11:30;;;;;;;11.98;2.80;;;;;;;11.54;75.25;100341.72;5082470;28;20036;-83
2022/05/22 00:13:56;;;;;;;7.18;3.22;;;;;;;11.41;75.35;100325.41;5064424;28;20024;-83
2022/05/22 00:16:36;;;;;;;6.50;2.90;;;;;;;11.44;75.41;100327.13;5082553;28;20028;-83
2022/05/22 00:19:06;;;;;;;6.15;2.92;;;;;;;11.44;75.62;100332.34;5082607;28;20024;-84
2022/05/22 00:21:32;;;;;;;8.75;2.63;;;;;;;11.49;75.70;100341.78;5082392;28;20051;-83
2022/05/22 00:23:57;;;;;;;9.65;3.95;;;;;;;11.45;75.77;100347.91;5064250;28;20027;-83
2022/05/22 00:26:23;;;;;;;9.13;3.40;;;;;;;11.41;75.98;100325.41;5082561;28;20366;-82
2022/05/22 00:28:48;;;;;;;10.55;3.25;;;;;;;11.41;76.27;100338.41;5082718;28;20032;-83
2022/05/22 00:31:14;;;;;;;6.68;3.20;;;;;;;11.40;76.44;100342.78;5083050;28;20080;-82
2022/05/22 00:33:40;;;;;;;11.50;3.22;;;;;;;11.40;76.42;100336.72;5082399;28;20025;-82
2022/05/22 00:36:05;;;;;;;8.52;3.40;;;;;;;11.46;76.23;100336.63;5082527;28;20021;-82
2022/05/22 00:38:31;;;;;;;15.23;3.78;;;;;;;11.52;76.16;100340.88;5082124;28;20024;-83
2022/05/22 00:40:57;;;;;;;8.32;3.70;;;;;;;11.56;76.02;100334.75;5082107;28;20059;-82
2022/05/22 00:43:35;;;;;;;11.90;3.78;;;;;;;11.59;75.88;100339.06;5082140;28;20047;-81
2022/05/22 00:46:02;;;;;;;7.53;3.70;;;;;;;11.58;75.89;100338.19;5082252;28;20028;-83
2022/05/22 00:48:28;;;;;;;13.27;3.50;;;;;;;11.52;75.77;100325.28;5082429;28;20059;-82
2022/05/22 00:51:01;;;;;;;11.73;3.70;;;;;;;11.51;76.20;100327.03;5064178;28;20317;-83
2022/05/22 00:53:29;;;;;;;10.48;4.05;;;;;;;11.47;76.37;100332.28;5082041;28;20123;-84
2022/05/22 00:55:54;;;;;;;9.68;4.18;;;;;;;11.40;76.51;100323.72;5082454;28;20017;-82
2022/05/22 00:58:26;;;;;;;12.38;4.00;;;;;;;11.43;76.55;100328.88;5083839;28;20039;-82
2022/05/22 01:00:52;;;;;;;11.95;4.15;;;;;;;11.42;76.80;100323.69;5085676;28;20520;-83
2022/05/22 01:03:28;;;;;;;11.32;3.80;;;;;;;11.36;76.91;100325.47;5085516;28;20032;-79
2022/05/22 01:06:12;;;;;;;12.60;5.45;;;;;;;11.37;77.03;100334.16;5067622;28;20056;-82
2022/05/22 01:08:39;;;;;;;13.73;4.90;;;;;;;11.30;77.11;100320.38;5085611;28;20085;-81
2022/05/22 01:11:14;;;;;;;9.85;3.60;;;;;;;11.28;76.98;100309.13;5086010;28;20024;-82
2022/05/22 01:13:46;;;;;;;9.88;4.43;;;;;;;11.35;77.15;100325.50;5085878;28;20066;-75
2022/05/22 01:16:12;;;;;;;11.43;4.13;;;;;;;11.32;77.16;100308.22;5085400;28;20381;-75
2022/05/22 01:18:47;;;;;;;7.20;4.20;;;;;;;11.26;77.25;100316.94;5085486;28;20021;-75
2022/05/22 01:21:16;;;;;;;14.23;4.05;;;;;;;11.26;77.55;100308.31;5085328;28;20055;-75
2022/05/22 01:23:42;;;;;;;11.82;4.18;;;;;;;11.30;77.55;100317.75;5085074;28;20048;-74
2022/05/22 01:26:08;;;;;;;10.80;4.68;;;;;;;11.30;77.54;100317.75;5085259;28;20025;-73
2022/05/22 01:28:33;;;;;;;12.00;4.40;;;;;;;11.26;77.49;100311.75;5085120;28;20036;-75
2022/05/22 01:31:00;;;;;;;11.50;4.10;;;;;;;11.30;77.70;100322.97;5085291;28;20036;-76
2022/05/22 01:33:26;;;;;;;11.88;4.28;;;;;;;11.30;78.09;100320.38;5085001;28;20213;-73
2022/05/22 01:35:51;;;;;;;14.65;3.78;;;;;;;11.26;77.92;100321.28;5084704;28;20057;-73
2022/05/22 01:38:17;;;;;;;12.30;4.35;;;;;;;11.25;78.06;100316.97;5084376;28;20020;-73
2022/05/22 01:40:42;;;;;;;12.57;4.68;;;;;;;11.29;78.02;100321.25;5084442;28;20052;-72
2022/05/22 01:43:08;;;;;;;11.80;4.78;;;;;;;11.27;77.92;100316.06;5084315;28;20016;-73
2022/05/22 01:45:33;;;;;;;10.82;4.05;;;;;;;11.32;78.03;100321.22;5084498;28;20025;-73
2022/05/22 01:47:58;;;;;;;12.07;5.50;;;;;;;11.28;78.04;100327.31;5084310;28;20134;-73
2022/05/22 01:50:24;;;;;;;9.00;4.30;;;;;;;11.32;77.66;100323.81;5084010;28;20025;-73
2022/05/22 01:52:50;;;;;;;15.27;4.63;;;;;;;11.32;77.72;100318.63;5084250;28;20032;-73
2022/05/22 01:55:16;;;;;;;15.02;5.13;;;;;;;11.29;78.10;100318.66;5083911;28;20025;-73
2022/05/22 01:57:41;;;;;;;13.52;5.00;;;;;;;11.23;78.16;100311.78;5084231;28;20021;-73
2022/05/22 02:00:11;;;;;;;12.00;4.80;;;;;;;11.28;78.21;100317.78;5083988;28;20058;-73
2022/05/22 02:02:36;;;;;;;13.95;5.22;;;;;;;11.27;78.36;100312.59;5083909;28;20039;-73
2022/05/22 02:05:02;;;;;;;8.43;4.70;;;;;;;11.27;78.32;100321.28;5083862;28;20018;-73
2022/05/22 02:10:13;;;;;;;9.82;5.28;;;;;;;11.32;78.21;100312.53;5083475;28;20050;-74
2022/05/22 02:12:39;;;;;;;12.25;5.90;;;;;;;11.39;77.82;100315.03;5084133;28;20052;-74
2022/05/22 02:15:05;;;;;;;10.02;4.70;;;;;;;11.35;78.11;100307.31;5083929;28;20028;-73
2022/05/22 02:17:31;;;;;;;11.70;6.18;;;;;;;11.38;78.43;100307.25;5084071;28;20024;-74
2022/05/22 02:19:57;;;;;;;13.52;5.53;;;;;;;11.39;78.09;100312.44;5083750;28;20460;-73
2022/05/22 02:22:23;;;;;;;14.52;5.55;;;;;;;11.44;77.97;100311.53;5083544;28;20088;-73
2022/05/22 02:24:50;;;;;;;18.65;6.78;;;;;;;11.41;78.27;100309.81;5083478;28;20032;-73
2022/05/22 02:27:15;;;;;;;18.02;6.20;;;;;;;11.44;78.15;100307.19;5083432;28;20089;-73
2022/05/22 02:29:41;;;;;;;13.98;6.45;;;;;;;11.44;78.17;100308.94;5083606;28;20088;-73
2022/05/22 02:32:07;;;;;;;13.57;6.95;;;;;;;11.44;78.38;100314.13;5083765;28;20016;-74
2022/05/22 02:34:33;;;;;;;16.92;6.15;;;;;;;11.43;78.45;100312.41;5065314;28;20024;-73
2022/05/22 02:36:59;;;;;;;18.52;6.35;;;;;;;11.46;78.37;100309.75;5083313;28;20020;-74
2022/05/22 02:39:24;;;;;;;17.58;7.60;;;;;;;11.40;78.51;100313.31;5082916;28;20044;-73
2022/05/22 02:41:50;;;;;;;15.43;6.22;;;;;;;11.40;78.52;100314.19;5083331;28;20063;-73
2022/05/22 02:44:15;;;;;;;14.40;6.00;;;;;;;11.39;78.92;100314.16;5083722;28;20024;-74
2022/05/22 02:46:42;;;;;;;15.55;9.10;;;;;;;11.38;78.92;100309.88;5083349;28;20252;-74
2022/05/22 02:49:08;;;;;;;16.15;6.88;;;;;;;11.35;78.97;100315.97;5083134;28;20076;-73
2022/05/22 02:51:34;;;;;;;9.73;6.15;;;;;;;11.24;79.09;100300.53;5083100;28;20031;-73
2022/05/22 02:53:59;;;;;;;16.27;6.13;;;;;;;11.34;79.28;100316.84;5082764;28;20039;-73
2022/05/22 02:56:25;;;;;;;13.50;6.32;;;;;;;11.31;79.31;100308.25;5082922;28;20028;-73
2022/05/22 02:58:51;;;;;;;16.52;6.00;;;;;;;11.35;79.36;100315.09;5082885;28;20239;-74
2022/05/22 03:01:16;;;;;;;7.82;5.78;;;;;;;11.34;79.06;100319.44;5082716;28;20033;-73
2022/05/22 03:03:42;;;;;;;20.45;6.22;;;;;;;11.33;79.08;100322.06;5082747;28;20021;-73
2022/05/22 03:08:51;;;;;;;21.30;6.45;;;;;;;11.30;79.01;100301.31;5082512;28;20109;-74
2022/05/22 03:11:17;;;;;;;16.25;6.20;;;;;;;11.30;79.28;100309.97;5082758;28;20524;-74
2022/05/22 03:13:42;;;;;;;13.88;6.10;;;;;;;11.36;79.08;100307.28;5064704;28;20024;-73
2022/05/22 03:16:08;;;;;;;14.98;5.85;;;;;;;11.38;78.80;100309.88;5082675;28;20107;-73
2022/05/22 03:18:33;;;;;;;13.02;5.80;;;;;;;11.40;79.11;100306.38;5082526;28;20214;-74
2022/05/22 03:20:59;;;;;;;17.73;6.18;;;;;;;11.46;78.75;100307.16;5081886;28;20088;-74
2022/05/22 03:23:24;;;;;;;11.77;5.45;;;;;;;11.51;78.44;100306.22;5082035;28;20028;-73
2022/05/22 03:25:51;;;;;;;15.98;6.65;;;;;;;11.51;78.58;100313.16;5082544;28;20080;-74
2022/05/22 03:28:17;;;;;;;17.92;5.88;;;;;;;11.37;78.26;100283.00;5082436;28;20025;-73
2022/05/22 03:30:43;;;;;;;9.82;5.85;;;;;;;11.41;78.28;100286.44;5064209;28;20025;-73
2022/05/22 03:33:08;;;;;;;11.93;5.60;;;;;;;11.55;78.09;100295.78;5064173;28;20066;-73
2022/05/22 03:35:34;;;;;;;14.48;5.80;;;;;;;11.64;77.87;100312.13;5082472;28;20154;-73
2022/05/22 03:38:00;;;;;;;10.05;5.43;;;;;;;11.62;77.99;100315.59;5082524;28;20263;-74
2022/05/22 03:40:26;;;;;;;11.27;5.88;;;;;;;11.63;77.96;100310.38;5082666;28;20060;-73
2022/05/22 03:42:52;;;;;;;10.43;5.82;;;;;;;11.62;77.83;100306.06;5082609;28;20045;-73
2022/05/22 03:45:18;;;;;;;16.77;5.18;;;;;;;11.65;77.94;100302.56;5064615;28;20089;-73
2022/05/22 03:47:43;;;;;;;12.80;6.00;;;;;;;11.54;77.95;100284.53;5082580;28;20083;-74
2022/05/22 03:50:11;;;;;;;12.50;5.53;;;;;;;11.71;77.56;100309.44;5082621;28;20546;-74
2022/05/22 03:52:40;;;;;;;12.55;5.57;;;;;;;11.78;77.66;100314.50;5064538;28;20059;-74
2022/05/22 03:55:08;;;;;;;9.20;5.65;;;;;;;11.81;77.76;100312.72;5082443;28;20035;-74
2022/05/22 03:57:33;;;;;;;10.68;5.28;;;;;;;11.79;77.61;100310.16;5064449;28;20395;-74
2022/05/22 04:00:03;;;;;;;18.33;6.63;;;;;;;11.87;77.52;100320.44;5082562;28;20024;-74
2022/05/22 04:02:28;;;;;;;16.25;5.40;;;;;;;11.90;77.19;100317.81;5082600;28;20025;-74
2022/05/22 04:04:53;;;;;;;10.18;6.10;;;;;;;12.01;77.22;100321.09;5082422;28;20128;-73
2022/05/22 04:07:19;;;;;;;12.32;5.40;;;;;;;12.00;76.99;100326.31;5082279;28;20098;-74
2022/05/22 04:09:44;;;;;;;12.18;5.55;;;;;;;12.09;76.78;100330.56;5082364;28;20025;-74
2022/05/22 04:12:11;;;;;;;12.65;5.18;;;;;;;12.13;76.94;100327.00;5064557;28;20017;-74
2022/05/22 04:14:36;;;;;;;12.65;6.07;;;;;;;12.17;76.48;100330.44;5082350;28;20043;-74
2022/05/22 04:17:02;;;;;;;8.65;5.13;;;;;;;12.15;76.33;100330.47;5082394;28;20024;-75
2022/05/22 04:19:28;;;;;;;10.52;4.80;;;;;;;12.20;76.41;100331.25;5082440;28;20028;-74
2022/05/22 04:21:53;;;;;;;9.15;5.13;;;;;;;12.22;75.98;100331.22;5082282;28;20023;-73
2022/05/22 04:27:04;;;;;;;7.82;5.28;;;;;;;12.23;75.75;100332.94;5082467;28;20058;-74
2022/05/22 04:29:35;;;;;;;16.30;5.57;;;;;;;12.29;76.00;100327.63;5082217;28;20051;-74
2022/05/22 04:32:01;;;;;;;11.20;4.78;;;;;;;12.43;75.54;100326.53;5083466;28;20024;-74
2022/05/22 04:34:26;;;;;;;8.30;4.40;;;;;;;12.50;75.13;100323.78;5086624;28;20036;-74
2022/05/22 04:36:51;;;;;;;8.82;4.18;;;;;;;12.60;74.32;100324.47;5086213;28;20021;-75
2022/05/22 04:39:17;;;;;;;10.73;4.45;;;;;;;12.64;74.12;100326.16;5085804;28;20036;-75
2022/05/22 04:41:42;;;;;;;9.35;4.40;;;;;;;12.74;73.75;100310.34;5086324;28;20030;-74
2022/05/22 04:44:08;;;;;;;10.70;5.03;;;;;;;12.87;72.90;100327.47;5086224;28;20048;-75
2022/05/22 04:46:34;;;;;;;7.25;4.18;;;;;;;12.95;72.68;100326.44;5085998;28;20035;-75
2022/05/22 04:48:59;;;;;;;12.20;4.55;;;;;;;12.96;72.06;100333.38;5067741;28;20180;-75
2022/05/22 04:51:24;;;;;;;8.38;3.50;;;;;;;12.78;71.57;100327.63;5085859;28;20101;-74
2022/05/22 04:53:50;;;;;;;7.97;3.97;;;;;;;12.86;71.37;100328.34;5085581;28;20111;-74
2022/05/22 04:56:16;;;;;;;7.82;3.50;;;;;;;12.81;71.62;100329.31;5067931;28;20082;-75
2022/05/22 04:58:42;;;;;;;10.70;4.57;;;;;;;12.82;71.62;100334.50;5085757;28;20024;-74
2022/05/22 05:01:09;;;;;;;5.18;3.75;;;;;;;12.86;71.37;100335.31;5085667;28;20020;-74
2022/05/22 05:03:35;;;;;;;10.35;3.60;;;;;;;12.89;71.19;100330.88;5085561;28;20489;-75
2022/05/22 05:06:01;;;;;;;8.93;4.60;;;;;;;12.87;71.14;100334.41;5085495;28;20044;-74
2022/05/22 05:08:27;;;;;;;10.05;4.05;;;;;;;12.85;70.94;100330.97;5085535;28;20032;-74
2022/05/22 05:10:53;;;;;;;7.53;4.38;;;;;;;12.86;70.90;100332.72;5085590;28;20032;-75
2022/05/22 05:13:22;;;;;;;8.65;3.97;;;;;;;12.87;70.76;100331.81;5067373;28;20017;-74
2022/05/22 05:16:02;;;;;;;8.77;3.92;;;;;;;12.80;70.84;100336.28;5067379;28;20481;-74
2022/05/22 05:18:28;;;;;;;9.68;4.22;;;;;;;12.79;70.62;100334.56;5085401;28;20067;-74
2022/05/22 05:20:58;;;;;;;10.45;4.03;;;;;;;12.73;70.51;100334.69;5085317;28;20340;-73
2022/05/22 05:23:23;;;;;;;9.32;4.20;;;;;;;12.70;70.65;100337.34;5085048;28;20454;-73
2022/05/22 05:25:50;;;;;;;9.73;4.43;;;;;;;12.60;70.81;100329.69;5085309;28;20020;-74
2022/05/22 05:28:15;;;;;;;9.85;4.57;;;;;;;12.42;70.92;100306.56;5085171;28;20021;-73
2022/05/22 05:30:40;;;;;;;9.98;4.70;;;;;;;12.51;71.18;100329.84;5085106;28;20021;-73
2022/05/22 05:33:06;;;;;;;9.50;4.45;;;;;;;12.52;71.13;100331.59;5085174;28;20028;-73
2022/05/22 05:35:31;;;;;;;9.55;4.35;;;;;;;12.52;71.46;100326.38;5085298;28;20020;-74
2022/05/22 05:37:57;;;;;;;11.63;4.93;;;;;;;12.48;71.57;100329.91;5067338;28;20070;-74
2022/05/22 05:40:22;;;;;;;13.38;4.30;;;;;;;12.57;71.75;100332.34;5084768;28;20055;-74
2022/05/22 05:42:48;;;;;;;12.60;4.70;;;;;;;12.61;71.75;100325.34;5084777;28;20048;-74
2022/05/22 05:45:14;;;;;;;14.82;5.63;;;;;;;12.66;71.53;100327.84;5066197;28;20040;-74
2022/05/22 05:47:40;;;;;;;12.63;5.18;;;;;;;12.73;71.65;100337.28;5084779;28;20099;-74
2022/05/22 05:50:06;;;;;;;11.57;4.10;;;;;;;12.80;71.33;100335.41;5084739;28;20081;-74
2022/05/22 05:52:31;;;;;;;10.30;4.15;;;;;;;12.76;71.40;100330.25;5084647;28;20230;-73
2022/05/22 05:54:57;;;;;;;9.75;4.82;;;;;;;12.84;71.25;100329.28;5084546;28;20025;-74
2022/05/22 05:57:22;;;;;;;10.23;4.07;;;;;;;12.91;71.54;100328.25;5084634;28;20079;-74
2022/05/22 05:59:47;;;;;;;17.10;4.70;;;;;;;13.06;71.26;100334.06;5066182;28;20020;-73
2022/05/22 06:02:14;;;;;;;7.20;4.20;;;;;;;13.24;70.82;100335.44;5084587;28;20072;-73
2022/05/22 06:04:40;;;;;;;8.65;4.75;;;;;;;13.27;70.76;100331.00;5084712;28;20051;-73
2022/05/22 06:07:07;;;;;;;10.48;4.00;;;;;;;13.31;70.28;100336.13;5084477;28;20040;-74
2022/05/22 06:09:32;;;;;;;9.02;4.63;;;;;;;13.42;70.55;100339.38;5066149;28;20028;-74
2022/05/22 06:11:58;;;;;;;13.27;3.78;;;;;;;13.42;69.65;100336.78;5066113;28;20071;-73
2022/05/22 06:14:23;;;;;;;9.00;4.38;;;;;;;13.34;69.54;100323.06;5084360;28;20101;-73
2022/05/22 06:16:50;;;;;;;12.07;3.97;;;;;;;13.45;69.75;100338.47;5066181;28;20028;-74
2022/05/22 06:19:15;;;;;;;9.48;3.80;;;;;;;13.65;69.57;100334.59;5084347;28;20012;-74
2022/05/22 06:21:43;;;;;;;9.30;4.03;;;;;;;13.78;69.42;100333.44;5084368;28;20124;-75
2022/05/22 06:24:08;;;;;;;8.80;3.83;;;;;;;13.92;68.44;100329.63;5083964;28;20020;-75
2022/05/22 06:26:33;;;;;;;7.82;3.38;;;;;;;14.08;68.18;100335.34;5084087;28;20050;-74
2022/05/22 06:28:58;;;;;;;10.70;3.42;;;;;;;14.22;67.88;100321.94;5065875;28;20491;-74
2022/05/22 06:31:24;;;;;;;6.25;3.20;;;;;;;14.48;67.29;100336.97;5084167;28;20063;-73
2022/05/22 06:33:50;;;;;;;6.78;4.15;;;;;;;14.63;66.23;100333.06;5084074;28;20337;-73
2022/05/22 06:36:16;;;;;;;3.75;2.80;;;;;;;14.71;65.20;100332.88;5084119;28;20012;-74
2022/05/22 06:41:26;;;;;;;7.40;2.63;;;;;;;14.90;63.69;100336.78;5083507;28;20051;-74
2022/05/22 06:43:52;;;;;;;8.30;2.33;;;;;;;14.98;63.05;100326.97;5083771;28;20052;-72
2022/05/22 06:46:18;;;;;;;9.35;3.20;;;;;;;15.06;62.53;100337.22;5083854;28;20020;-73
2022/05/22 06:48:44;;;;;;;6.15;3.08;;;;;;;15.07;62.82;100338.91;5065453;28;20044;-73
2022/05/22 06:51:09;;;;;;;8.70;3.10;;;;;;;15.06;62.56;100338.06;5083694;28;20468;-73
2022/05/22 06:53:34;;;;;;;4.47;2.30;;;;;;;15.14;62.30;100337.00;5065250;28;20402;-73
2022/05/22 06:56:00;;;;;;;6.22;3.00;;;;;;;15.14;61.63;100337.00;5082719;28;20020;-74
2022/05/22 06:58:25;;;;;;;7.13;2.58;;;;;;;15.13;60.67;100343.13;5083454;28;20103;-74
2022/05/22 07:00:53;;;;;;;7.13;3.42;;;;;;;14.95;60.95;100334.91;5083500;28;20020;-74
2022/05/22 07:03:19;;;;;;;8.00;2.90;;;;;;;14.93;61.17;100339.31;5083554;28;20016;-73
2022/05/22 07:05:46;;;;;;;7.05;3.08;;;;;;;14.83;61.61;100343.91;5083661;28;20031;-73
2022/05/22 07:08:11;;;;;;;7.45;3.10;;;;;;;14.78;61.47;100348.38;5083272;28;20020;-73
2022/05/22 07:13:21;;;;;;;9.63;3.08;;;;;;;14.60;61.94;100338.38;5083385;28;20032;-76
2022/05/22 07:15:57;;;;;;;8.52;3.10;;;;;;;14.56;61.75;100347.22;5083214;28;20020;-75
2022/05/22 07:18:22;;;;;;;5.93;2.92;;;;;;;14.53;61.79;100339.47;5083548;28;20021;-75
2022/05/22 07:20:47;;;;;;;6.22;3.50;;;;;;;14.58;61.56;100347.16;5083132;28;20026;-75
2022/05/22 07:23:13;;;;;;;7.07;3.22;;;;;;;14.64;61.76;100344.41;5065313;28;20040;-73
2022/05/22 07:25:38;;;;;;;7.05;3.47;;;;;;;14.58;60.97;100350.66;5083242;28;20241;-75
2022/05/22 07:28:04;;;;;;;4.47;2.78;;;;;;;14.50;61.29;100345.59;5082745;28;20021;-75
2022/05/22 07:30:29;;;;;;;7.18;3.13;;;;;;;14.49;61.45;100353.47;5065075;28;20025;-75
2022/05/22 07:32:55;;;;;;;7.35;3.25;;;;;;;14.44;61.44;100347.53;5083301;28;20024;-75
2022/05/22 07:35:21;;;;;;;6.63;3.40;;;;;;;14.53;61.93;100354.25;5065026;28;20053;-75
2022/05/22 07:37:49;;;;;;;6.13;2.88;;;;;;;14.67;61.70;100343.44;5082547;28;20016;-76
2022/05/22 07:40:14;;;;;;;8.00;3.35;;;;;;;14.82;61.08;100356.16;5082427;28;20075;-75
2022/05/22 07:42:40;;;;;;;7.07;3.35;;;;;;;14.87;60.72;100364.72;5082738;28;20020;-74
2022/05/22 07:45:07;;;;;;;9.50;3.55;;;;;;;14.86;61.02;100359.53;5064454;28;20052;-75
2022/05/22 07:47:32;;;;;;;5.30;2.95;;;;;;;14.85;60.95;100350.84;5082487;28;20115;-75
2022/05/22 07:52:41;;;;;;;5.63;3.20;;;;;;;15.01;60.68;100360.00;5082603;28;20035;-74
2022/05/22 07:55:14;;;;;;;10.75;3.50;;;;;;;15.06;60.55;100348.53;5082175;28;20020;-75
2022/05/22 07:57:43;;;;;;;6.85;3.70;;;;;;;15.04;60.53;100358.16;5082367;28;20027;-74
2022/05/22 08:00:11;;;;;;;7.63;3.05;;;;;;;14.97;60.57;100360.09;5082648;28;20504;-73
2022/05/22 08:02:37;;;;;;;7.43;3.88;;;;;;;14.85;60.52;100363.03;5064232;28;20024;-73
2022/05/22 08:05:04;;;;;;;10.98;4.35;;;;;;;14.65;61.27;100361.78;5082566;28;20148;-73
2022/05/22 08:07:30;;;;;;;8.73;4.05;;;;;;;14.48;62.26;100362.22;5084613;28;20461;-73
2022/05/22 08:09:55;;;;;;;10.70;4.90;;;;;;;14.38;62.02;100365.06;5086260;28;20039;-73
2022/05/22 08:12:21;;;;;;;9.68;4.18;;;;;;;14.23;62.63;100365.44;5086489;28;20076;-72
2022/05/22 08:14:47;;;;;;;13.45;4.32;;;;;;;14.10;62.90;100360.53;5086544;28;20290;-74
2022/05/22 08:17:13;;;;;;;13.07;4.10;;;;;;;14.07;63.19;100362.34;5086392;28;20031;-75
2022/05/22 08:19:38;;;;;;;10.88;4.60;;;;;;;13.98;63.72;100364.28;5086551;28;20016;-75
2022/05/22 08:22:04;;;;;;;14.23;4.63;;;;;;;14.02;64.14;100365.06;5086226;28;20031;-75
2022/05/22 08:24:29;;;;;;;10.38;4.38;;;;;;;14.16;64.20;100367.34;5086149;28;20457;-75
2022/05/22 08:26:55;;;;;;;7.57;3.47;;;;;;;14.31;63.90;100365.25;5086370;28;20086;-74
2022/05/22 08:29:20;;;;;;;8.88;4.18;;;;;;;14.45;63.61;100371.00;5086189;28;20056;-74
2022/05/22 08:31:45;;;;;;;7.53;3.80;;;;;;;14.48;63.60;100383.13;5086174;28;20546;-74
2022/05/22 08:34:12;;;;;;;14.43;4.25;;;;;;;14.55;63.58;100378.59;5068293;28;20040;-74
2022/05/22 08:36:37;;;;;;;11.95;5.20;;;;;;;14.62;63.19;100375.78;5086225;28;20028;-74
2022/05/22 08:39:03;;;;;;;7.32;3.92;;;;;;;14.75;63.24;100376.31;5086090;28;20016;-74
2022/05/22 08:41:37;;;;;;;8.02;3.50;;;;;;;14.87;63.26;100372.53;5085962;28;20451;-74
2022/05/22 08:44:09;;;;;;;12.98;4.13;;;;;;;15.06;62.91;100368.59;5067946;28;20514;-74
2022/05/22 08:46:46;;;;;;;21.25;4.55;;;;;;;15.34;62.62;100373.88;5086007;28;20598;-76
2022/05/22 08:49:23;;;;;;;6.00;3.60;;;;;;;15.53;62.32;100375.94;5085724;28;20480;-76
2022/05/22 08:51:53;;;;;;;8.60;3.67;;;;;;;15.74;61.58;100386.69;5085994;28;20512;-74
2022/05/22 08:54:19;;;;;;;6.45;3.10;;;;;;;15.85;59.53;100376.75;5085593;28;20111;-74
2022/05/22 08:59:34;;;;;;;8.90;4.07;;;;;;;16.42;59.13;100378.44;5086082;28;20102;-73
2022/05/22 09:02:23;;;;;;;9.73;4.10;;;;;;;16.78;57.87;100364.16;5085763;28;20032;-73
2022/05/22 09:05:04;;;;;;;7.32;3.72;;;;;;;16.90;56.72;100370.72;5085758;28;20107;-75
2022/05/22 09:07:29;;;;;;;4.70;3.50;;;;;;;16.95;56.82;100370.53;5085316;28;20025;-73
2022/05/22 09:10:05;;;;;;;6.68;3.40;;;;;;;17.12;56.51;100363.88;5085050;28;20123;-74
2022/05/22 09:12:56;;;;;;;6.13;3.22;;;;;;;17.21;54.57;100372.28;5067168;28;20120;-73
2022/05/22 09:15:35;;;;;;;6.17;3.10;;;;;;;17.31;54.89;100364.94;5085403;28;20051;-75
2022/05/22 09:18:10;;;;;;;5.63;2.72;;;;;;;17.40;54.40;100370.72;5084333;28;20262;-73
2022/05/22 09:20:55;;;;;;;4.35;2.88;;;;;;;17.62;54.53;100367.28;5085050;28;20345;-74
2022/05/22 09:23:49;;;;;;;5.30;3.10;;;;;;;18.09;53.22;100375.06;5085010;28;20063;-74
2022/05/22 09:26:41;;;;;;;6.53;2.88;;;;;;;18.44;52.41;100373.69;5054966;28;20123;-68
2022/05/22 09:29:19;;;;;;;4.80;3.60;;;;;;;18.75;52.13;100372.38;5081387;28;20090;-68
2022/05/22 09:32:03;;;;;;;4.85;3.00;;;;;;;18.86;51.20;100374.53;5084987;28;20024;-69
2022/05/22 09:34:31;;;;;;;8.65;3.05;;;;;;;18.86;49.56;100368.41;5085244;28;20047;-68
2022/05/22 09:36:56;;;;;;;5.70;3.28;;;;;;;18.53;48.70;100373.28;5085351;28;20136;-68
2022/05/22 09:39:59;;;;;;;9.55;3.38;;;;;;;18.24;50.47;100372.75;5084784;28;20115;-67
2022/05/22 09:42:49;;;;;;;6.75;2.90;;;;;;;18.19;50.81;100372.09;5085342;28;20106;-67
2022/05/22 09:45:36;;;;;;;7.80;2.75;;;;;;;18.25;50.78;100377.09;5085080;28;20029;-67
2022/05/22 09:48:13;;;;;;;5.13;3.00;;;;;;;18.24;50.20;100377.16;5084802;28;20134;-67
2022/05/22 09:50:57;;;;;;;4.38;2.72;;;;;;;18.19;50.42;100375.56;5085139;28;20039;-67
2022/05/22 09:53:31;;;;;;;6.32;2.90;;;;;;;18.43;49.82;100383.34;5084916;28;20035;-69
2022/05/22 09:56:09;;;;;;;5.60;2.85;;;;;;;18.55;50.39;100381.97;5084902;28;20024;-67
2022/05/22 09:58:40;;;;;;;5.95;2.75;;;;;;;18.60;49.64;100383.53;5085163;28;20253;-67
2022/05/22 10:01:12;;;;;;;6.57;2.90;;;;;;;18.48;50.02;100380.53;5085510;28;20035;-67
2022/05/22 10:03:49;;;;;;;7.32;2.80;;;;;;;18.53;49.96;100377.72;5085088;28;20539;-68
2022/05/22 10:06:41;;;;;;;7.68;2.92;;;;;;;18.44;49.89;100378.94;5084979;28;20032;-68
2022/05/22 10:09:31;;;;;;;6.65;3.17;;;;;;;18.20;50.04;100376.41;5085152;28;20051;-68
2022/05/22 10:12:14;;;;;;;6.85;3.00;;;;;;;18.11;51.05;100387.25;5084858;28;20345;-68
2022/05/22 10:15:00;;;;;;;9.52;2.80;;;;;;;18.23;50.51;100373.66;5084888;28;20028;-68
2022/05/22 10:17:33;;;;;;;8.15;2.95;;;;;;;18.26;50.92;100378.78;5084914;28;20012;-73
2022/05/22 10:19:59;;;;;;;8.88;2.45;;;;;;;18.44;50.58;100392.06;5084577;28;20024;-72
2022/05/22 10:22:38;;;;;;;7.28;3.20;;;;;;;18.50;50.46;100393.63;5084325;28;20082;-71
2022/05/22 10:25:36;;;;;;;6.68;2.83;;;;;;;18.46;49.96;100398.13;5084389;28;20020;-72
2022/05/22 10:28:10;;;;;;;8.05;2.38;;;;;;;18.33;49.28;100397.78;5084426;28;20288;-72
2022/05/22 10:30:48;;;;;;;6.95;2.60;;;;;;;18.18;49.72;100394.00;5084247;28;20025;-72
2022/05/22 10:33:55;;;;;;;7.85;2.75;;;;;;;18.21;50.13;100396.53;5084087;28;20036;-72
2022/05/22 10:36:25;;;;;;;7.18;2.30;;;;;;;18.19;50.83;100393.97;5080833;28;20094;-72
2022/05/22 10:39:08;;;;;;;9.02;2.78;;;;;;;18.11;50.13;100392.53;5084014;28;20031;-72
2022/05/22 10:44:53;;;;;;;8.80;3.53;;;;;;;18.24;50.55;100398.16;5084212;28;20032;-72
2022/05/22 10:47:31;;;;;;;7.93;2.88;;;;;;;18.45;49.88;100407.78;5083930;28;20032;-72
2022/05/22 10:49:58;;;;;;;6.13;2.85;;;;;;;18.40;49.65;100406.28;5084071;28;20021;-73
2022/05/22 10:52:26;;;;;;;7.75;3.15;;;;;;;18.27;50.00;100404.16;5083662;28;20028;-71
2022/05/22 10:54:54;;;;;;;7.63;2.65;;;;;;;18.19;49.63;100401.84;5083737;28;20084;-72
2022/05/22 10:57:25;;;;;;;8.90;2.58;;;;;;;18.07;49.56;100407.53;5084035;28;20043;-71
2022/05/22 10:59:52;;;;;;;5.25;2.67;;;;;;;18.00;49.40;100403.47;5083820;28;20035;-71
2022/05/22 11:02:31;;;;;;;5.88;2.35;;;;;;;17.83;49.43;100397.94;5083737;28;20052;-73
2022/05/22 11:04:58;;;;;;;7.18;2.75;;;;;;;17.91;50.49;100405.53;5083806;28;20031;-71
2022/05/22 11:07:51;;;;;;;9.77;3.20;;;;;;;17.84;49.97;100402.28;5083612;28;20020;-70
2022/05/22 11:10:47;;;;;;;5.75;2.38;;;;;;;17.65;50.81;100412.63;5083430;28;20372;-72
2022/05/22 11:13:25;;;;;;;8.07;2.80;;;;;;;17.59;51.29;100408.47;5066350;28;20499;-72
2022/05/22 11:15:51;;;;;;;5.88;2.85;;;;;;;17.50;51.34;100411.47;5083674;28;20032;-72
2022/05/22 11:18:26;;;;;;;7.88;2.88;;;;;;;17.34;51.82;100414.66;5083258;28;20027;-72
2022/05/22 11:21:27;;;;;;;5.32;2.72;;;;;;;17.17;52.07;100403.94;5065404;28;20068;-72
2022/05/22 11:24:02;;;;;;;11.68;3.33;;;;;;;17.08;52.32;100412.97;5082495;28;20036;-71
2022/05/22 11:26:47;;;;;;;5.30;2.58;;;;;;;16.95;52.75;100407.25;5083459;28;20016;-72
2022/05/22 11:29:22;;;;;;;5.82;2.42;;;;;;;16.85;52.83;100420.69;5083262;28;20031;-71
2022/05/22 11:32:15;;;;;;;7.45;2.88;;;;;;;16.90;53.27;100412.66;5083274;28;20020;-71
2022/05/22 11:34:43;;;;;;;8.15;2.65;;;;;;;17.10;53.05;100408.53;5083062;28;20029;-72
2022/05/22 11:37:25;;;;;;;6.22;2.67;;;;;;;17.35;52.45;100402.38;5083043;28;20024;-71
2022/05/22 11:39:57;;;;;;;;;;;;;;;17.41;52.27;100404.78;5083129;28;20044;-71
2022/05/22 11:42:33;;;;;;;8.07;2.90;;;;;;;17.38;52.65;100399.63;5082601;28;19912;-70
2022/05/22 11:45:42;;;;;;;6.95;2.67;;;;;;;17.35;52.34;100405.00;5082877;28;20048;-70
2022/05/22 11:48:17;;;;;;;10.15;3.40;;;;;;;17.29;52.59;100411.34;5082829;28;20031;-71
2022/05/22 11:51:39;;;;;;;9.38;2.95;;;;;;;17.26;53.07;100415.84;5082984;28;20085;-71
2022/05/22 11:54:17;;;;;;;7.15;2.70;;;;;;;17.29;53.25;100413.09;5020156;28;20336;-72
2022/05/22 11:57:03;;;;;;;6.45;2.83;;;;;;;17.37;52.83;100415.44;5020280;28;20041;-71